sensor_id;sensor_type;location;lat;lon;timestamp;pressure;altitude;pressure_sealevel;temperature;humidity
73501;BME280;61721;42.206;25.320;2023-08-01T00:01:54;99046.84;;;24.59;57.68
73501;BME280;61721;42.206;25.320;2023-08-01T00:04:22;99054.50;;;24.47;58.37
73501;BME280;61721;42.206;25.320;2023-08-01T00:06:49;99051.78;;;24.57;57.58
73501;BME280;61721;42.206;25.320;2023-08-01T00:09:16;99046.78;;;24.39;57.74
73501;BME280;61721;42.206;25.320;2023-08-01T00:11:44;99050.06;;;24.31;57.88
73501;BME280;61721;42.206;25.320;2023-08-01T00:14:12;99051.63;;;24.22;58.13
73501;BME280;61721;42.206;25.320;2023-08-01T00:16:39;99044.03;;;24.39;58.36
73501;BME280;61721;42.206;25.320;2023-08-01T00:19:06;99048.41;;;24.30;58.59
73501;BME280;61721;42.206;25.320;2023-08-01T00:21:33;99042.66;;;24.37;58.43
73501;BME280;61721;42.206;25.320;2023-08-01T00:24:01;99037.16;;;24.42;57.87
73501;BME280;61721;42.206;25.320;2023-08-01T00:26:28;99040.78;;;24.52;58.05
73501;BME280;61721;42.206;25.320;2023-08-01T00:28:55;99039.44;;;24.65;57.07
73501;BME280;61721;42.206;25.320;2023-08-01T00:31:23;99041.56;;;24.43;57.83
73501;BME280;61721;42.206;25.320;2023-08-01T00:33:58;99031.13;;;24.50;57.74
73501;BME280;61721;42.206;25.320;2023-08-01T00:36:25;99025.31;;;24.41;57.85
73501;BME280;61721;42.206;25.320;2023-08-01T00:38:52;99031.06;;;24.35;58.55
73501;BME280;61721;42.206;25.320;2023-08-01T00:41:19;99024.19;;;24.32;58.62
73501;BME280;61721;42.206;25.320;2023-08-01T00:43:46;99029.97;;;24.36;58.54
73501;BME280;61721;42.206;25.320;2023-08-01T00:46:13;99026.09;;;24.26;58.53
73501;BME280;61721;42.206;25.320;2023-08-01T00:48:42;99022.19;;;24.22;58.54
73501;BME280;61721;42.206;25.320;2023-08-01T00:51:09;99023.28;;;24.21;58.97
73501;BME280;61721;42.206;25.320;2023-08-01T00:53:37;99023.28;;;24.21;58.55
73501;BME280;61721;42.206;25.320;2023-08-01T00:56:05;99019.09;;;24.09;58.62
73501;BME280;61721;42.206;25.320;2023-08-01T00:58:32;99012.00;;;24.18;58.24
73501;BME280;61721;42.206;25.320;2023-08-01T01:00:59;99018.81;;;24.05;58.74
73501;BME280;61721;42.206;25.320;2023-08-01T01:03:26;99012.44;;;23.94;59.30
73501;BME280;61721;42.206;25.320;2023-08-01T01:06:00;99019.88;;;23.99;58.96
73501;BME280;61721;42.206;25.320;2023-08-01T01:08:28;99013.81;;;23.97;59.48
73501;BME280;61721;42.206;25.320;2023-08-01T01:10:56;99012.53;;;24.15;58.72
73501;BME280;61721;42.206;25.320;2023-08-01T01:13:24;99010.00;;;24.03;59.25
73501;BME280;61721;42.206;25.320;2023-08-01T01:15:51;99013.31;;;24.05;58.79
73501;BME280;61721;42.206;25.320;2023-08-01T01:18:18;99011.91;;;23.98;59.30
73501;BME280;61721;42.206;25.320;2023-08-01T01:20:48;99018.69;;;23.80;59.95
73501;BME280;61721;42.206;25.320;2023-08-01T01:23:16;99032.03;;;22.92;62.20
73501;BME280;61721;42.206;25.320;2023-08-01T01:25:44;99023.94;;;22.80;63.01
73501;BME280;61721;42.206;25.320;2023-08-01T01:28:13;99026.75;;;22.15;65.73
73501;BME280;61721;42.206;25.320;2023-08-01T01:30:42;99016.00;;;22.57;64.30
73501;BME280;61721;42.206;25.320;2023-08-01T01:33:10;99015.59;;;22.70;63.68
73501;BME280;61721;42.206;25.320;2023-08-01T01:35:38;99009.91;;;23.04;62.56
73501;BME280;61721;42.206;25.320;2023-08-01T01:38:06;99006.94;;;23.10;62.55
73501;BME280;61721;42.206;25.320;2023-08-01T01:40:33;99008.22;;;23.35;61.84
73501;BME280;61721;42.206;25.320;2023-08-01T01:43:01;99004.94;;;23.43;61.38
73501;BME280;61721;42.206;25.320;2023-08-01T01:45:28;99012.13;;;23.49;61.33
73501;BME280;61721;42.206;25.320;2023-08-01T01:47:55;99013.22;;;23.48;61.02
73501;BME280;61721;42.206;25.320;2023-08-01T01:50:22;99005.53;;;23.50;61.33
73501;BME280;61721;42.206;25.320;2023-08-01T01:52:49;99008.25;;;23.45;61.35
73501;BME280;61721;42.206;25.320;2023-08-01T01:55:18;99000.81;;;23.35;61.75
73501;BME280;61721;42.206;25.320;2023-08-01T01:57:45;99001.63;;;23.36;61.68
73501;BME280;61721;42.206;25.320;2023-08-01T02:00:12;99000.81;;;23.35;62.15
73501;BME280;61721;42.206;25.320;2023-08-01T02:02:40;99003.28;;;23.42;61.72
73501;BME280;61721;42.206;25.320;2023-08-01T02:05:07;99000.25;;;23.33;62.14
73501;BME280;61721;42.206;25.320;2023-08-01T02:07:34;99000.94;;;23.18;61.38
73501;BME280;61721;42.206;25.320;2023-08-01T02:10:01;98996.72;;;23.06;61.96
73501;BME280;61721;42.206;25.320;2023-08-01T02:12:30;99003.41;;;23.15;61.67
73501;BME280;61721;42.206;25.320;2023-08-01T02:14:57;98999.72;;;23.04;62.18
73501;BME280;61721;42.206;25.320;2023-08-01T02:17:25;99002.59;;;23.19;62.35
73501;BME280;61721;42.206;25.320;2023-08-01T02:19:52;98998.59;;;23.32;61.36
73501;BME280;61721;42.206;25.320;2023-08-01T02:22:19;99006.91;;;23.47;61.00
73501;BME280;61721;42.206;25.320;2023-08-01T02:24:46;98998.88;;;23.36;61.46
73501;BME280;61721;42.206;25.320;2023-08-01T02:27:13;99005.72;;;23.33;61.65
73501;BME280;61721;42.206;25.320;2023-08-01T02:29:43;99016.78;;;23.43;60.58
73501;BME280;61721;42.206;25.320;2023-08-01T02:32:10;99013.81;;;23.13;61.01
73501;BME280;61721;42.206;25.320;2023-08-01T02:34:37;99011.28;;;23.06;61.07
73501;BME280;61721;42.206;25.320;2023-08-01T02:37:04;99015.47;;;23.14;60.80
73501;BME280;61721;42.206;25.320;2023-08-01T02:39:32;99009.53;;;22.95;61.49
73501;BME280;61721;42.206;25.320;2023-08-01T02:41:59;99009.13;;;22.81;61.62
73501;BME280;61721;42.206;25.320;2023-08-01T02:44:27;99000.16;;;22.91;61.49
73501;BME280;61721;42.206;25.320;2023-08-01T02:46:55;99002.03;;;22.85;61.99
73501;BME280;61721;42.206;25.320;2023-08-01T02:49:22;98996.50;;;22.80;62.36
73501;BME280;61721;42.206;25.320;2023-08-01T02:51:50;99004.34;;;23.30;60.92
73501;BME280;61721;42.206;25.320;2023-08-01T02:54:17;99009.69;;;23.10;60.74
73501;BME280;61721;42.206;25.320;2023-08-01T02:56:44;99006.22;;;22.93;61.06
73501;BME280;61721;42.206;25.320;2023-08-01T02:59:10;99000.53;;;22.99;61.38
73501;BME280;61721;42.206;25.320;2023-08-01T03:01:38;99008.19;;;22.97;61.26
73501;BME280;61721;42.206;25.320;2023-08-01T03:04:07;99010.88;;;22.92;61.23
73501;BME280;61721;42.206;25.320;2023-08-01T03:06:34;99014.69;;;22.86;61.31
73501;BME280;61721;42.206;25.320;2023-08-01T03:09:01;99017.88;;;22.78;61.70
73501;BME280;61721;42.206;25.320;2023-08-01T03:11:31;99025.59;;;22.81;61.86
73501;BME280;61721;42.206;25.320;2023-08-01T03:13:58;99030.53;;;22.79;61.98
73501;BME280;61721;42.206;25.320;2023-08-01T03:16:25;99028.94;;;22.83;61.85
73501;BME280;61721;42.206;25.320;2023-08-01T03:18:52;99036.00;;;23.06;61.28
73501;BME280;61721;42.206;25.320;2023-08-01T03:21:21;99032.25;;;23.17;61.44
73501;BME280;61721;42.206;25.320;2023-08-01T03:23:48;99033.94;;;22.91;61.72
73501;BME280;61721;42.206;25.320;2023-08-01T03:26:15;99033.59;;;22.83;62.28
73501;BME280;61721;42.206;25.320;2023-08-01T03:28:43;99030.97;;;22.71;62.75
73501;BME280;61721;42.206;25.320;2023-08-01T03:31:11;99030.75;;;22.78;62.98
73501;BME280;61721;42.206;25.320;2023-08-01T03:33:38;99025.19;;;22.94;62.34
73501;BME280;61721;42.206;25.320;2023-08-01T03:36:05;99030.72;;;22.99;62.14
73501;BME280;61721;42.206;25.320;2023-08-01T03:38:33;99033.31;;;23.11;62.18
73501;BME280;61721;42.206;25.320;2023-08-01T03:41:00;99036.31;;;23.10;62.44
73501;BME280;61721;42.206;25.320;2023-08-01T03:43:29;99041.19;;;23.35;61.24
73501;BME280;61721;42.206;25.320;2023-08-01T03:45:56;99040.41;;;23.44;61.36
73501;BME280;61721;42.206;25.320;2023-08-01T03:48:24;99041.00;;;23.51;61.20
73501;BME280;61721;42.206;25.320;2023-08-01T03:50:51;99051.91;;;23.36;62.17
73501;BME280;61721;42.206;25.320;2023-08-01T03:53:18;99049.47;;;23.45;61.66
73501;BME280;61721;42.206;25.320;2023-08-01T03:55:47;99051.00;;;23.25;62.81
73501;BME280;61721;42.206;25.320;2023-08-01T03:58:14;99048.09;;;23.42;62.23
73501;BME280;61721;42.206;25.320;2023-08-01T04:00:42;99049.75;;;23.43;62.15
73501;BME280;61721;42.206;25.320;2023-08-01T04:03:09;99050.81;;;23.37;62.33
73501;BME280;61721;42.206;25.320;2023-08-01T04:05:36;99052.63;;;23.58;62.04
73501;BME280;61721;42.206;25.320;2023-08-01T04:08:03;99057.16;;;23.75;61.23
73501;BME280;61721;42.206;25.320;2023-08-01T04:10:30;99053.84;;;23.73;61.40
73501;BME280;61721;42.206;25.320;2023-08-01T04:12:59;99064.63;;;23.84;61.01
73501;BME280;61721;42.206;25.320;2023-08-01T04:15:26;99066.09;;;23.97;60.42
73501;BME280;61721;42.206;25.320;2023-08-01T04:17:53;99059.94;;;23.80;61.61
73501;BME280;61721;42.206;25.320;2023-08-01T04:20:20;99063.31;;;23.97;61.48
73501;BME280;61721;42.206;25.320;2023-08-01T04:22:47;99055.91;;;23.98;61.45
73501;BME280;61721;42.206;25.320;2023-08-01T04:25:14;99047.28;;;23.79;62.33
73501;BME280;61721;42.206;25.320;2023-08-01T04:27:41;99049.25;;;23.88;62.29
73501;BME280;61721;42.206;25.320;2023-08-01T04:30:11;99063.69;;;23.69;62.45
73501;BME280;61721;42.206;25.320;2023-08-01T04:32:38;99060.50;;;23.82;62.23
73501;BME280;61721;42.206;25.320;2023-08-01T04:35:06;99064.91;;;23.83;62.90
73501;BME280;61721;42.206;25.320;2023-08-01T04:37:33;99064.25;;;23.71;62.93
73501;BME280;61721;42.206;25.320;2023-08-01T04:40:00;99064.38;;;23.86;63.18
73501;BME280;61721;42.206;25.320;2023-08-01T04:42:28;99065.13;;;24.23;61.55
73501;BME280;61721;42.206;25.320;2023-08-01T04:44:55;99067.66;;;24.30;61.17
73501;BME280;61721;42.206;25.320;2023-08-01T04:47:24;99068.59;;;24.56;60.21
73501;BME280;61721;42.206;25.320;2023-08-01T04:49:51;99073.22;;;24.45;61.01
73501;BME280;61721;42.206;25.320;2023-08-01T04:52:18;99071.59;;;24.54;60.50
73501;BME280;61721;42.206;25.320;2023-08-01T04:54:46;99073.00;;;24.62;60.29
73501;BME280;61721;42.206;25.320;2023-08-01T04:57:13;99070.78;;;24.59;60.26
73501;BME280;61721;42.206;25.320;2023-08-01T04:59:40;99077.94;;;24.55;60.84
73501;BME280;61721;42.206;25.320;2023-08-01T05:02:07;99081.84;;;24.74;59.47
73501;BME280;61721;42.206;25.320;2023-08-01T05:04:37;99082.44;;;24.81;59.83
73501;BME280;61721;42.206;25.320;2023-08-01T05:07:05;99076.13;;;24.91;60.24
73501;BME280;61721;42.206;25.320;2023-08-01T05:09:32;99082.44;;;24.81;60.15
73501;BME280;61721;42.206;25.320;2023-08-01T05:12:00;99083.56;;;24.96;59.83
73501;BME280;61721;42.206;25.320;2023-08-01T05:14:27;99089.59;;;24.87;60.25
73501;BME280;61721;42.206;25.320;2023-08-01T05:16:54;99086.56;;;24.89;60.07
73501;BME280;61721;42.206;25.320;2023-08-01T05:19:22;99092.44;;;25.08;59.60
73501;BME280;61721;42.206;25.320;2023-08-01T05:21:50;99095.75;;;25.30;58.69
73501;BME280;61721;42.206;25.320;2023-08-01T05:24:20;99086.66;;;25.14;58.26
73501;BME280;61721;42.206;25.320;2023-08-01T05:26:47;99088.75;;;24.77;58.96
73501;BME280;61721;42.206;25.320;2023-08-01T05:29:14;99090.81;;;25.32;57.19
73501;BME280;61721;42.206;25.320;2023-08-01T05:31:41;99094.38;;;25.22;57.14
73501;BME280;61721;42.206;25.320;2023-08-01T05:34:08;99091.34;;;25.14;57.78
73501;BME280;61721;42.206;25.320;2023-08-01T05:36:36;99091.91;;;25.36;56.47
73501;BME280;61721;42.206;25.320;2023-08-01T05:39:05;99091.06;;;25.26;56.50
73501;BME280;61721;42.206;25.320;2023-08-01T05:41:32;99091.63;;;25.38;56.31
73501;BME280;61721;42.206;25.320;2023-08-01T05:43:59;99094.13;;;25.75;55.37
73501;BME280;61721;42.206;25.320;2023-08-01T05:46:26;99096.59;;;25.81;54.73
73501;BME280;61721;42.206;25.320;2023-08-01T05:48:54;99091.34;;;25.54;54.12
73501;BME280;61721;42.206;25.320;2023-08-01T05:51:21;99098.53;;;25.86;53.23
73501;BME280;61721;42.206;25.320;2023-08-01T05:53:56;99092.47;;;25.79;51.44
73501;BME280;61721;42.206;25.320;2023-08-01T05:56:24;99096.91;;;25.70;51.40
73501;BME280;61721;42.206;25.320;2023-08-01T05:58:51;99098.81;;;25.44;52.03
73501;BME280;61721;42.206;25.320;2023-08-01T06:01:19;99092.47;;;25.28;51.08
73501;BME280;61721;42.206;25.320;2023-08-01T06:03:47;99095.50;;;25.93;49.68
73501;BME280;61721;42.206;25.320;2023-08-01T06:06:14;99093.00;;;25.15;51.06
73501;BME280;61721;42.206;25.320;2023-08-01T06:08:41;99094.13;;;25.39;50.14
73501;BME280;61721;42.206;25.320;2023-08-01T06:11:08;99096.31;;;25.93;50.11
73501;BME280;61721;42.206;25.320;2023-08-01T06:13:37;99101.19;;;26.16;49.92
73501;BME280;61721;42.206;25.320;2023-08-01T06:16:04;99091.28;;;26.15;50.08
73501;BME280;61721;42.206;25.320;2023-08-01T06:18:31;99092.19;;;25.80;49.95
73501;BME280;61721;42.206;25.320;2023-08-01T06:20:58;99086.31;;;26.12;49.07
73501;BME280;61721;42.206;25.320;2023-08-01T06:23:25;99082.94;;;26.41;48.88
73501;BME280;61721;42.206;25.320;2023-08-01T06:25:53;99085.44;;;26.32;48.85
73501;BME280;61721;42.206;25.320;2023-08-01T06:28:20;99079.69;;;26.08;48.25
73501;BME280;61721;42.206;25.320;2023-08-01T06:30:48;99085.16;;;26.34;47.79
73501;BME280;61721;42.206;25.320;2023-08-01T06:33:15;99083.00;;;26.10;48.13
73501;BME280;61721;42.206;25.320;2023-08-01T06:35:42;99089.03;;;26.33;48.02
73501;BME280;61721;42.206;25.320;2023-08-01T06:38:09;99081.59;;;26.33;47.92
73501;BME280;61721;42.206;25.320;2023-08-01T06:40:37;99085.72;;;26.36;46.63
73501;BME280;61721;42.206;25.320;2023-08-01T06:43:04;99076.72;;;26.69;46.41
73501;BME280;61721;42.206;25.320;2023-08-01T06:45:31;99085.88;;;26.65;46.68
73501;BME280;61721;42.206;25.320;2023-08-01T06:48:00;99083.75;;;26.96;46.36
73501;BME280;61721;42.206;25.320;2023-08-01T06:50:27;99080.38;;;27.09;47.13
73501;BME280;61721;42.206;25.320;2023-08-01T06:52:55;99083.94;;;27.14;45.76
73501;BME280;61721;42.206;25.320;2023-08-01T06:55:22;99083.47;;;27.02;45.56
73501;BME280;61721;42.206;25.320;2023-08-01T06:57:49;99080.13;;;27.44;44.25
73501;BME280;61721;42.206;25.320;2023-08-01T07:00:16;99077.50;;;27.63;43.95
73501;BME280;61721;42.206;25.320;2023-08-01T07:02:44;99077.19;;;26.87;45.38
73501;BME280;61721;42.206;25.320;2023-08-01T07:05:12;99069.06;;;27.44;44.04
73501;BME280;61721;42.206;25.320;2023-08-01T07:07:39;99076.28;;;27.40;43.38
73501;BME280;61721;42.206;25.320;2023-08-01T07:10:07;99076.13;;;27.61;42.58
73501;BME280;61721;42.206;25.320;2023-08-01T07:12:35;99072.00;;;27.87;42.50
73501;BME280;61721;42.206;25.320;2023-08-01T07:15:02;99073.50;;;27.40;43.53
73501;BME280;61721;42.206;25.320;2023-08-01T07:17:29;99076.97;;;27.56;43.17
73501;BME280;61721;42.206;25.320;2023-08-01T07:19:56;99072.13;;;27.43;42.96
73501;BME280;61721;42.206;25.320;2023-08-01T07:22:25;99073.31;;;27.66;43.01
73501;BME280;61721;42.206;25.320;2023-08-01T07:24:52;99071.28;;;27.76;42.69
73501;BME280;61721;42.206;25.320;2023-08-01T07:27:20;99064.47;;;27.93;41.34
73501;BME280;61721;42.206;25.320;2023-08-01T07:29:47;99065.97;;;28.09;41.09
73501;BME280;61721;42.206;25.320;2023-08-01T07:32:14;99060.13;;;28.58;40.93
73501;BME280;61721;42.206;25.320;2023-08-01T07:34:42;99059.34;;;27.81;41.89
73501;BME280;61721;42.206;25.320;2023-08-01T07:37:10;99065.31;;;27.93;41.79
73501;BME280;61721;42.206;25.320;2023-08-01T07:39:38;99065.69;;;28.10;42.37
73501;BME280;61721;42.206;25.320;2023-08-01T07:42:24;99066.03;;;28.04;42.15
73501;BME280;61721;42.206;25.320;2023-08-01T07:44:51;99063.06;;;28.24;41.05
73501;BME280;61721;42.206;25.320;2023-08-01T07:47:19;99061.97;;;27.67;41.50
73501;BME280;61721;42.206;25.320;2023-08-01T07:49:46;99063.56;;;28.02;41.12
73501;BME280;61721;42.206;25.320;2023-08-01T07:52:13;99053.19;;;28.13;40.90
73501;BME280;61721;42.206;25.320;2023-08-01T07:54:42;99049.00;;;28.16;40.64
73501;BME280;61721;42.206;25.320;2023-08-01T07:57:09;99045.47;;;28.58;40.02
73501;BME280;61721;42.206;25.320;2023-08-01T07:59:36;99054.94;;;28.70;38.74
73501;BME280;61721;42.206;25.320;2023-08-01T08:02:04;99042.81;;;28.48;38.79
73501;BME280;61721;42.206;25.320;2023-08-01T08:04:32;99048.47;;;28.99;38.27
73501;BME280;61721;42.206;25.320;2023-08-01T08:07:00;99053.88;;;29.09;38.49
73501;BME280;61721;42.206;25.320;2023-08-01T08:09:27;99049.81;;;28.83;38.66
73501;BME280;61721;42.206;25.320;2023-08-01T08:11:55;99046.47;;;29.37;37.82
73501;BME280;61721;42.206;25.320;2023-08-01T08:14:23;99047.69;;;29.31;38.17
73501;BME280;61721;42.206;25.320;2023-08-01T08:16:50;99032.78;;;29.46;38.26
73501;BME280;61721;42.206;25.320;2023-08-01T08:19:17;99036.13;;;29.75;36.47
73501;BME280;61721;42.206;25.320;2023-08-01T08:21:45;99035.28;;;29.61;36.86
73501;BME280;61721;42.206;25.320;2023-08-01T08:24:12;99040.13;;;29.69;35.75
73501;BME280;61721;42.206;25.320;2023-08-01T08:26:40;99031.38;;;30.08;36.33
73501;BME280;61721;42.206;25.320;2023-08-01T08:29:08;99028.75;;;29.84;36.49
73501;BME280;61721;42.206;25.320;2023-08-01T08:31:36;99029.50;;;30.03;36.59
73501;BME280;61721;42.206;25.320;2023-08-01T08:34:03;99026.69;;;29.76;36.33
73501;BME280;61721;42.206;25.320;2023-08-01T08:36:30;99022.16;;;29.80;36.59
73501;BME280;61721;42.206;25.320;2023-08-01T08:38:57;99026.00;;;30.12;35.82
73501;BME280;61721;42.206;25.320;2023-08-01T08:41:26;99021.50;;;30.16;35.52
73501;BME280;61721;42.206;25.320;2023-08-01T08:43:56;99024.16;;;30.21;35.35
73501;BME280;61721;42.206;25.320;2023-08-01T08:46:28;99023.19;;;29.98;35.90
73501;BME280;61721;42.206;25.320;2023-08-01T08:48:56;99017.03;;;29.87;35.60
73501;BME280;61721;42.206;25.320;2023-08-01T08:51:26;99009.50;;;29.74;35.44
73501;BME280;61721;42.206;25.320;2023-08-01T08:53:54;99014.88;;;30.39;34.96
73501;BME280;61721;42.206;25.320;2023-08-01T08:56:21;99011.25;;;29.70;35.42
73501;BME280;61721;42.206;25.320;2023-08-01T08:58:49;99004.59;;;29.85;35.29
73501;BME280;61721;42.206;25.320;2023-08-01T09:01:17;99007.34;;;30.67;34.96
73501;BME280;61721;42.206;25.320;2023-08-01T09:03:46;99005.13;;;30.91;34.19
73501;BME280;61721;42.206;25.320;2023-08-01T09:06:15;99011.50;;;30.92;34.54
73501;BME280;61721;42.206;25.320;2023-08-01T09:08:46;99008.34;;;31.07;33.76
73501;BME280;61721;42.206;25.320;2023-08-01T09:11:15;98992.81;;;31.28;33.53
73501;BME280;61721;42.206;25.320;2023-08-01T09:13:42;98989.75;;;30.72;33.98
73501;BME280;61721;42.206;25.320;2023-08-01T09:16:10;98994.94;;;30.37;34.46
73501;BME280;61721;42.206;25.320;2023-08-01T09:18:48;98993.94;;;30.83;33.97
73501;BME280;61721;42.206;25.320;2023-08-01T09:21:18;98979.03;;;31.01;34.19
73501;BME280;61721;42.206;25.320;2023-08-01T09:23:45;98989.50;;;31.26;33.83
73501;BME280;61721;42.206;25.320;2023-08-01T09:26:13;98986.34;;;30.97;34.24
73501;BME280;61721;42.206;25.320;2023-08-01T09:28:42;98982.13;;;31.22;33.88
73501;BME280;61721;42.206;25.320;2023-08-01T09:31:10;98979.47;;;30.94;33.20
73501;BME280;61721;42.206;25.320;2023-08-01T09:33:38;98984.41;;;30.61;34.49
73501;BME280;61721;42.206;25.320;2023-08-01T09:36:08;98980.69;;;30.52;33.38
73501;BME280;61721;42.206;25.320;2023-08-01T09:38:36;98971.28;;;30.76;33.95
73501;BME280;61721;42.206;25.320;2023-08-01T09:41:04;98977.13;;;31.32;32.99
73501;BME280;61721;42.206;25.320;2023-08-01T09:43:35;98965.00;;;30.84;33.58
73501;BME280;61721;42.206;25.320;2023-08-01T09:46:06;98963.34;;;30.83;32.67
73501;BME280;61721;42.206;25.320;2023-08-01T09:48:33;98962.31;;;30.79;32.46
73501;BME280;61721;42.206;25.320;2023-08-01T09:51:05;98963.19;;;30.65;33.16
73501;BME280;61721;42.206;25.320;2023-08-01T09:53:34;98949.25;;;30.29;33.66
73501;BME280;61721;42.206;25.320;2023-08-01T09:56:03;98957.41;;;30.98;32.72
73501;BME280;61721;42.206;25.320;2023-08-01T09:58:34;98956.13;;;30.59;33.15
73501;BME280;61721;42.206;25.320;2023-08-01T10:01:02;98946.81;;;31.31;32.25
73501;BME280;61721;42.206;25.320;2023-08-01T10:03:30;98940.34;;;31.44;32.48
73501;BME280;61721;42.206;25.320;2023-08-01T10:05:59;98947.28;;;31.02;32.04
73501;BME280;61721;42.206;25.320;2023-08-01T10:08:36;98935.06;;;31.65;31.63
73501;BME280;61721;42.206;25.320;2023-08-01T10:11:04;98929.88;;;31.72;30.92
73501;BME280;61721;42.206;25.320;2023-08-01T10:13:34;98929.88;;;31.72;31.56
73501;BME280;61721;42.206;25.320;2023-08-01T10:16:02;98926.88;;;31.07;31.17
73501;BME280;61721;42.206;25.320;2023-08-01T10:18:30;98919.56;;;31.42;31.64
73501;BME280;61721;42.206;25.320;2023-08-01T10:20:57;98914.94;;;31.37;30.74
73501;BME280;61721;42.206;25.320;2023-08-01T10:23:27;98913.91;;;32.04;30.21
73501;BME280;61721;42.206;25.320;2023-08-01T10:25:56;98917.13;;;32.37;30.04
73501;BME280;61721;42.206;25.320;2023-08-01T10:28:31;98907.84;;;31.62;30.87
73501;BME280;61721;42.206;25.320;2023-08-01T10:31:07;98911.22;;;31.81;31.59
73501;BME280;61721;42.206;25.320;2023-08-01T10:33:35;98899.50;;;32.10;30.85
73501;BME280;61721;42.206;25.320;2023-08-01T10:36:12;98896.31;;;31.77;30.95
73501;BME280;61721;42.206;25.320;2023-08-01T10:38:45;98896.34;;;31.86;29.98
73501;BME280;61721;42.206;25.320;2023-08-01T10:41:25;98891.03;;;32.33;30.10
73501;BME280;61721;42.206;25.320;2023-08-01T10:44:04;98891.94;;;31.93;30.26
73501;BME280;61721;42.206;25.320;2023-08-01T10:46:45;98880.41;;;32.35;29.87
73501;BME280;61721;42.206;25.320;2023-08-01T10:49:12;98866.56;;;32.04;29.76
73501;BME280;61721;42.206;25.320;2023-08-01T10:51:40;98869.91;;;32.40;30.11
73501;BME280;61721;42.206;25.320;2023-08-01T10:54:18;98864.66;;;32.65;29.52
73501;BME280;61721;42.206;25.320;2023-08-01T10:56:47;98858.59;;;32.63;28.79
73501;BME280;61721;42.206;25.320;2023-08-01T10:59:16;98851.88;;;32.29;28.91
73501;BME280;61721;42.206;25.320;2023-08-01T11:01:44;98853.50;;;32.65;29.33
73501;BME280;61721;42.206;25.320;2023-08-01T11:04:16;98844.28;;;32.12;30.58
73501;BME280;61721;42.206;25.320;2023-08-01T11:06:47;98849.72;;;32.78;29.21
73501;BME280;61721;42.206;25.320;2023-08-01T11:09:20;98844.78;;;32.92;28.52
73501;BME280;61721;42.206;25.320;2023-08-01T11:11:51;98838.19;;;33.05;29.74
73501;BME280;61721;42.206;25.320;2023-08-01T11:14:27;98835.69;;;33.12;27.49
73501;BME280;61721;42.206;25.320;2023-08-01T11:16:56;98834.47;;;32.58;28.76
73501;BME280;61721;42.206;25.320;2023-08-01T11:19:24;98827.25;;;32.66;28.13
73501;BME280;61721;42.206;25.320;2023-08-01T11:21:52;98820.06;;;32.47;28.91
73501;BME280;61721;42.206;25.320;2023-08-01T11:24:22;98818.22;;;32.69;28.47
73501;BME280;61721;42.206;25.320;2023-08-01T11:26:53;98820.59;;;33.13;27.65
73501;BME280;61721;42.206;25.320;2023-08-01T11:29:21;98815.63;;;32.64;27.52
73501;BME280;61721;42.206;25.320;2023-08-01T11:31:55;98812.81;;;32.64;28.62
73501;BME280;61721;42.206;25.320;2023-08-01T11:34:22;98811.84;;;32.59;29.25
73501;BME280;61721;42.206;25.320;2023-08-01T11:36:50;98807.69;;;33.00;28.66
73501;BME280;61721;42.206;25.320;2023-08-01T11:39:18;98814.38;;;33.08;28.57
73501;BME280;61721;42.206;25.320;2023-08-01T11:41:47;98789.03;;;32.75;28.67
73501;BME280;61721;42.206;25.320;2023-08-01T11:44:16;98809.78;;;33.50;28.36
73501;BME280;61721;42.206;25.320;2023-08-01T11:46:43;98801.13;;;33.72;28.15
73501;BME280;61721;42.206;25.320;2023-08-01T11:49:14;98795.78;;;33.20;28.71
73501;BME280;61721;42.206;25.320;2023-08-01T11:51:42;98791.47;;;32.94;29.14
73501;BME280;61721;42.206;25.320;2023-08-01T11:54:10;98787.31;;;33.08;27.99
73501;BME280;61721;42.206;25.320;2023-08-01T11:56:39;98792.94;;;33.38;27.71
73501;BME280;61721;42.206;25.320;2023-08-01T11:59:09;98780.78;;;32.96;27.91
73501;BME280;61721;42.206;25.320;2023-08-01T12:01:42;98786.25;;;33.21;28.07
73501;BME280;61721;42.206;25.320;2023-08-01T12:04:24;98778.91;;;33.76;27.41
73501;BME280;61721;42.206;25.320;2023-08-01T12:06:52;98775.50;;;33.70;27.77
73501;BME280;61721;42.206;25.320;2023-08-01T12:09:19;98786.34;;;33.42;28.23
73501;BME280;61721;42.206;25.320;2023-08-01T12:11:57;98773.44;;;32.82;28.63
73501;BME280;61721;42.206;25.320;2023-08-01T12:14:25;98772.47;;;32.70;28.57
73501;BME280;61721;42.206;25.320;2023-08-01T12:16:55;98765.28;;;32.51;29.08
73501;BME280;61721;42.206;25.320;2023-08-01T12:19:22;98761.34;;;32.52;28.57
73501;BME280;61721;42.206;25.320;2023-08-01T12:21:49;98767.16;;;32.94;28.78
73501;BME280;61721;42.206;25.320;2023-08-01T12:24:17;98768.03;;;32.69;28.65
73501;BME280;61721;42.206;25.320;2023-08-01T12:26:44;98765.72;;;32.88;28.93
73501;BME280;61721;42.206;25.320;2023-08-01T12:29:11;98755.50;;;32.28;28.69
73501;BME280;61721;42.206;25.320;2023-08-01T12:31:38;98750.25;;;32.35;27.81
73501;BME280;61721;42.206;25.320;2023-08-01T12:34:06;98752.41;;;32.94;28.17
73501;BME280;61721;42.206;25.320;2023-08-01T12:36:34;98749.41;;;33.07;28.21
73501;BME280;61721;42.206;25.320;2023-08-01T12:39:01;98747.91;;;33.48;27.48
73501;BME280;61721;42.206;25.320;2023-08-01T12:41:28;98741.63;;;33.21;27.41
73501;BME280;61721;42.206;25.320;2023-08-01T12:43:56;98748.72;;;33.10;27.13
73501;BME280;61721;42.206;25.320;2023-08-01T12:46:23;98740.25;;;33.36;27.47
73501;BME280;61721;42.206;25.320;2023-08-01T12:48:50;98741.97;;;33.49;28.44
73501;BME280;61721;42.206;25.320;2023-08-01T12:51:18;98738.69;;;32.80;27.72
73501;BME280;61721;42.206;25.320;2023-08-01T12:53:45;98732.03;;;32.46;28.02
73501;BME280;61721;42.206;25.320;2023-08-01T12:56:12;98734.84;;;32.29;28.65